sensor_id;sensor_type;location;lat;lon;timestamp;P1;durP1;ratioP1;P2;durP2;ratioP2
21727;SDS011;11026;50.560;17.852;2023-08-30T00:01:01;37.80;;;25.30;;
21727;SDS011;11026;50.560;17.852;2023-08-30T00:03:29;36.33;;;25.80;;
21727;SDS011;11026;50.560;17.852;2023-08-30T00:06:01;39.15;;;24.38;;
21727;SDS011;11026;50.560;17.852;2023-08-30T00:08:32;35.47;;;23.23;;
21727;SDS011;11026;50.560;17.852;2023-08-30T00:11:01;38.30;;;23.50;;
21727;SDS011;11026;50.560;17.852;2023-08-30T00:13:30;39.75;;;24.88;;
21727;SDS011;11026;50.560;17.852;2023-08-30T00:15:59;38.58;;;24.13;;
21727;SDS011;11026;50.560;17.852;2023-08-30T00:18:27;40.28;;;25.30;;
21727;SDS011;11026;50.560;17.852;2023-08-30T00:20:54;40.05;;;24.65;;
21727;SDS011;11026;50.560;17.852;2023-08-30T00:23:22;37.92;;;23.40;;
21727;SDS011;11026;50.560;17.852;2023-08-30T00:25:49;41.58;;;23.52;;
21727;SDS011;11026;50.560;17.852;2023-08-30T00:28:16;41.10;;;24.98;;
21727;SDS011;11026;50.560;17.852;2023-08-30T00:30:45;37.08;;;23.10;;
21727;SDS011;11026;50.560;17.852;2023-08-30T00:33:12;37.35;;;23.23;;
21727;SDS011;11026;50.560;17.852;2023-08-30T00:35:40;38.67;;;23.98;;
21727;SDS011;11026;50.560;17.852;2023-08-30T00:38:07;39.85;;;23.63;;
21727;SDS011;11026;50.560;17.852;2023-08-30T00:40:51;34.92;;;20.90;;
21727;SDS011;11026;50.560;17.852;2023-08-30T00:43:20;35.38;;;23.10;;
21727;SDS011;11026;50.560;17.852;2023-08-30T00:45:48;33.80;;;21.30;;
21727;SDS011;11026;50.560;17.852;2023-08-30T00:48:16;33.15;;;20.40;;
21727;SDS011;11026;50.560;17.852;2023-08-30T00:50:46;34.25;;;21.35;;
21727;SDS011;11026;50.560;17.852;2023-08-30T00:53:14;33.80;;;21.85;;
21727;SDS011;11026;50.560;17.852;2023-08-30T00:55:42;33.05;;;21.48;;
21727;SDS011;11026;50.560;17.852;2023-08-30T00:58:10;33.25;;;22.50;;
21727;SDS011;11026;50.560;17.852;2023-08-30T01:00:45;35.80;;;22.17;;
21727;SDS011;11026;50.560;17.852;2023-08-30T01:03:14;32.40;;;21.48;;
21727;SDS011;11026;50.560;17.852;2023-08-30T01:05:41;37.60;;;22.50;;
21727;SDS011;11026;50.560;17.852;2023-08-30T01:08:09;36.35;;;22.23;;
21727;SDS011;11026;50.560;17.852;2023-08-30T01:13:45;33.33;;;20.80;;
21727;SDS011;11026;50.560;17.852;2023-08-30T01:16:26;35.72;;;22.52;;
21727;SDS011;11026;50.560;17.852;2023-08-30T01:18:55;37.88;;;22.77;;
21727;SDS011;11026;50.560;17.852;2023-08-30T01:21:27;37.40;;;22.60;;
21727;SDS011;11026;50.560;17.852;2023-08-30T01:24:09;33.50;;;21.42;;
21727;SDS011;11026;50.560;17.852;2023-08-30T01:29:31;35.03;;;20.08;;
21727;SDS011;11026;50.560;17.852;2023-08-30T01:32:00;31.17;;;19.65;;
21727;SDS011;11026;50.560;17.852;2023-08-30T01:34:29;31.80;;;19.77;;
21727;SDS011;11026;50.560;17.852;2023-08-30T01:36:57;36.00;;;19.38;;
21727;SDS011;11026;50.560;17.852;2023-08-30T01:39:28;29.52;;;18.42;;
21727;SDS011;11026;50.560;17.852;2023-08-30T01:41:56;28.48;;;19.40;;
21727;SDS011;11026;50.560;17.852;2023-08-30T01:44:27;29.83;;;18.77;;
21727;SDS011;11026;50.560;17.852;2023-08-30T01:47:01;25.52;;;18.48;;
21727;SDS011;11026;50.560;17.852;2023-08-30T01:49:29;25.08;;;18.00;;
21727;SDS011;11026;50.560;17.852;2023-08-30T01:51:59;27.00;;;18.73;;
21727;SDS011;11026;50.560;17.852;2023-08-30T01:54:27;25.42;;;18.17;;
21727;SDS011;11026;50.560;17.852;2023-08-30T01:56:57;27.38;;;17.52;;
21727;SDS011;11026;50.560;17.852;2023-08-30T01:59:25;27.13;;;17.60;;
21727;SDS011;11026;50.560;17.852;2023-08-30T02:01:52;26.70;;;17.70;;
21727;SDS011;11026;50.560;17.852;2023-08-30T02:04:20;25.23;;;18.13;;
21727;SDS011;11026;50.560;17.852;2023-08-30T02:07:51;25.10;;;17.67;;
21727;SDS011;11026;50.560;17.852;2023-08-30T02:09:57;23.77;;;17.23;;
21727;SDS011;11026;50.560;17.852;2023-08-30T02:13:09;27.30;;;17.92;;
21727;SDS011;11026;50.560;17.852;2023-08-30T02:15:21;24.48;;;17.92;;
21727;SDS011;11026;50.560;17.852;2023-08-30T02:17:54;23.20;;;17.98;;
21727;SDS011;11026;50.560;17.852;2023-08-30T02:20:23;25.63;;;18.33;;
21727;SDS011;11026;50.560;17.852;2023-08-30T02:22:50;24.40;;;17.95;;
21727;SDS011;11026;50.560;17.852;2023-08-30T02:25:19;21.50;;;17.35;;
21727;SDS011;11026;50.560;17.852;2023-08-30T02:27:51;24.27;;;17.53;;
21727;SDS011;11026;50.560;17.852;2023-08-30T02:30:21;22.05;;;16.33;;
21727;SDS011;11026;50.560;17.852;2023-08-30T02:32:49;21.35;;;14.85;;
21727;SDS011;11026;50.560;17.852;2023-08-30T02:35:17;20.40;;;16.17;;
21727;SDS011;11026;50.560;17.852;2023-08-30T02:37:44;21.80;;;16.58;;
21727;SDS011;11026;50.560;17.852;2023-08-30T02:40:14;20.85;;;16.25;;
21727;SDS011;11026;50.560;17.852;2023-08-30T02:42:41;22.58;;;17.35;;
21727;SDS011;11026;50.560;17.852;2023-08-30T02:45:10;19.77;;;16.30;;
21727;SDS011;11026;50.560;17.852;2023-08-30T02:47:37;22.30;;;16.08;;
21727;SDS011;11026;50.560;17.852;2023-08-30T02:50:10;24.35;;;16.30;;
21727;SDS011;11026;50.560;17.852;2023-08-30T02:52:38;21.38;;;16.67;;
21727;SDS011;11026;50.560;17.852;2023-08-30T02:55:05;20.77;;;16.30;;
21727;SDS011;11026;50.560;17.852;2023-08-30T02:57:33;21.52;;;16.42;;
21727;SDS011;11026;50.560;17.852;2023-08-30T03:00:00;21.90;;;15.85;;
21727;SDS011;11026;50.560;17.852;2023-08-30T03:02:27;20.95;;;15.45;;
21727;SDS011;11026;50.560;17.852;2023-08-30T03:04:55;22.67;;;15.52;;
21727;SDS011;11026;50.560;17.852;2023-08-30T03:07:23;19.33;;;15.20;;
21727;SDS011;11026;50.560;17.852;2023-08-30T03:09:54;21.30;;;14.52;;
21727;SDS011;11026;50.560;17.852;2023-08-30T03:12:22;18.65;;;14.38;;
21727;SDS011;11026;50.560;17.852;2023-08-30T03:14:49;18.00;;;14.20;;
21727;SDS011;11026;50.560;17.852;2023-08-30T03:17:17;20.58;;;14.90;;
21727;SDS011;11026;50.560;17.852;2023-08-30T03:19:45;17.92;;;13.90;;
21727;SDS011;11026;50.560;17.852;2023-08-30T03:22:12;18.20;;;14.00;;
21727;SDS011;11026;50.560;17.852;2023-08-30T03:24:39;15.85;;;13.10;;
21727;SDS011;11026;50.560;17.852;2023-08-30T03:27:07;17.83;;;13.23;;
21727;SDS011;11026;50.560;17.852;2023-08-30T03:29:34;16.65;;;13.85;;
21727;SDS011;11026;50.560;17.852;2023-08-30T03:32:02;17.10;;;13.10;;
21727;SDS011;11026;50.560;17.852;2023-08-30T03:34:29;15.13;;;12.27;;
21727;SDS011;11026;50.560;17.852;2023-08-30T03:36:57;16.40;;;12.45;;
21727;SDS011;11026;50.560;17.852;2023-08-30T03:39:25;14.50;;;12.07;;
21727;SDS011;11026;50.560;17.852;2023-08-30T03:41:53;16.30;;;12.48;;
21727;SDS011;11026;50.560;17.852;2023-08-30T03:44:20;17.20;;;11.75;;
21727;SDS011;11026;50.560;17.852;2023-08-30T03:46:55;16.85;;;11.63;;
21727;SDS011;11026;50.560;17.852;2023-08-30T03:49:23;16.48;;;12.38;;
21727;SDS011;11026;50.560;17.852;2023-08-30T03:51:51;15.98;;;12.13;;
21727;SDS011;11026;50.560;17.852;2023-08-30T03:54:18;14.48;;;11.38;;
21727;SDS011;11026;50.560;17.852;2023-08-30T03:56:46;16.02;;;12.68;;
21727;SDS011;11026;50.560;17.852;2023-08-30T03:59:13;17.63;;;11.93;;
21727;SDS011;11026;50.560;17.852;2023-08-30T04:01:41;15.20;;;12.65;;
21727;SDS011;11026;50.560;17.852;2023-08-30T04:04:09;15.48;;;12.23;;
21727;SDS011;11026;50.560;17.852;2023-08-30T04:06:37;15.77;;;11.95;;
21727;SDS011;11026;50.560;17.852;2023-08-30T04:09:05;15.65;;;12.18;;
21727;SDS011;11026;50.560;17.852;2023-08-30T04:11:32;16.88;;;12.30;;
21727;SDS011;11026;50.560;17.852;2023-08-30T04:14:00;18.23;;;12.55;;
21727;SDS011;11026;50.560;17.852;2023-08-30T04:16:29;16.00;;;12.40;;
21727;SDS011;11026;50.560;17.852;2023-08-30T04:18:56;19.95;;;12.10;;
21727;SDS011;11026;50.560;17.852;2023-08-30T04:21:24;17.15;;;12.75;;
21727;SDS011;11026;50.560;17.852;2023-08-30T04:23:51;19.55;;;14.02;;
21727;SDS011;11026;50.560;17.852;2023-08-30T04:26:19;17.75;;;14.75;;
21727;SDS011;11026;50.560;17.852;2023-08-30T04:28:46;17.95;;;15.30;;
21727;SDS011;11026;50.560;17.852;2023-08-30T04:31:13;19.13;;;14.85;;
21727;SDS011;11026;50.560;17.852;2023-08-30T04:33:41;16.73;;;12.98;;
21727;SDS011;11026;50.560;17.852;2023-08-30T04:36:16;17.45;;;13.57;;
21727;SDS011;11026;50.560;17.852;2023-08-30T04:38:44;20.35;;;15.85;;
21727;SDS011;11026;50.560;17.852;2023-08-30T04:41:28;21.10;;;17.00;;
21727;SDS011;11026;50.560;17.852;2023-08-30T04:43:56;25.13;;;17.73;;
21727;SDS011;11026;50.560;17.852;2023-08-30T04:46:24;28.35;;;20.15;;
21727;SDS011;11026;50.560;17.852;2023-08-30T04:48:51;27.52;;;20.20;;
21727;SDS011;11026;50.560;17.852;2023-08-30T04:51:19;24.02;;;19.73;;
21727;SDS011;11026;50.560;17.852;2023-08-30T04:53:46;25.35;;;19.35;;
21727;SDS011;11026;50.560;17.852;2023-08-30T04:56:14;24.77;;;20.45;;
21727;SDS011;11026;50.560;17.852;2023-08-30T04:58:41;30.77;;;20.70;;
21727;SDS011;11026;50.560;17.852;2023-08-30T05:01:10;23.98;;;19.70;;
21727;SDS011;11026;50.560;17.852;2023-08-30T05:03:40;26.65;;;20.02;;
21727;SDS011;11026;50.560;17.852;2023-08-30T05:06:07;25.88;;;20.25;;
21727;SDS011;11026;50.560;17.852;2023-08-30T05:08:35;27.75;;;20.50;;
21727;SDS011;11026;50.560;17.852;2023-08-30T05:11:02;24.63;;;19.00;;
21727;SDS011;11026;50.560;17.852;2023-08-30T05:13:38;23.85;;;18.77;;
21727;SDS011;11026;50.560;17.852;2023-08-30T05:16:05;21.88;;;18.15;;
21727;SDS011;11026;50.560;17.852;2023-08-30T05:18:34;22.95;;;18.10;;
21727;SDS011;11026;50.560;17.852;2023-08-30T05:21:02;24.65;;;18.98;;
21727;SDS011;11026;50.560;17.852;2023-08-30T05:23:32;21.45;;;18.33;;
21727;SDS011;11026;50.560;17.852;2023-08-30T05:25:59;21.13;;;16.77;;
21727;SDS011;11026;50.560;17.852;2023-08-30T05:28:28;19.67;;;16.08;;
21727;SDS011;11026;50.560;17.852;2023-08-30T05:30:55;19.25;;;15.23;;
21727;SDS011;11026;50.560;17.852;2023-08-30T05:33:23;15.07;;;13.50;;
21727;SDS011;11026;50.560;17.852;2023-08-30T05:35:50;16.10;;;14.25;;
21727;SDS011;11026;50.560;17.852;2023-08-30T05:38:17;15.30;;;13.55;;
21727;SDS011;11026;50.560;17.852;2023-08-30T05:40:46;13.50;;;12.10;;
21727;SDS011;11026;50.560;17.852;2023-08-30T05:43:13;13.18;;;10.68;;
21727;SDS011;11026;50.560;17.852;2023-08-30T05:45:42;12.90;;;11.38;;
21727;SDS011;11026;50.560;17.852;2023-08-30T05:48:10;12.52;;;11.23;;
21727;SDS011;11026;50.560;17.852;2023-08-30T05:50:37;12.25;;;10.98;;
21727;SDS011;11026;50.560;17.852;2023-08-30T05:53:05;12.48;;;11.23;;
21727;SDS011;11026;50.560;17.852;2023-08-30T05:55:34;11.90;;;10.70;;
21727;SDS011;11026;50.560;17.852;2023-08-30T05:58:02;10.88;;;9.77;;
21727;SDS011;11026;50.560;17.852;2023-08-30T06:00:30;10.73;;;9.73;;
21727;SDS011;11026;50.560;17.852;2023-08-30T06:02:57;12.55;;;11.25;;
21727;SDS011;11026;50.560;17.852;2023-08-30T06:05:24;11.80;;;10.05;;
21727;SDS011;11026;50.560;17.852;2023-08-30T06:07:53;11.82;;;10.63;;
21727;SDS011;11026;50.560;17.852;2023-08-30T06:10:23;11.70;;;10.60;;
21727;SDS011;11026;50.560;17.852;2023-08-30T06:12:51;12.80;;;11.50;;
21727;SDS011;11026;50.560;17.852;2023-08-30T06:15:19;12.75;;;11.25;;
21727;SDS011;11026;50.560;17.852;2023-08-30T06:17:46;13.75;;;12.27;;
21727;SDS011;11026;50.560;17.852;2023-08-30T06:20:13;14.73;;;12.05;;
21727;SDS011;11026;50.560;17.852;2023-08-30T06:22:47;14.35;;;12.45;;
21727;SDS011;11026;50.560;17.852;2023-08-30T06:25:14;13.18;;;11.85;;
21727;SDS011;11026;50.560;17.852;2023-08-30T06:27:42;15.43;;;13.20;;
21727;SDS011;11026;50.560;17.852;2023-08-30T06:30:13;13.63;;;12.23;;
21727;SDS011;11026;50.560;17.852;2023-08-30T06:32:40;13.40;;;12.00;;
21727;SDS011;11026;50.560;17.852;2023-08-30T06:35:10;15.20;;;12.57;;
21727;SDS011;11026;50.560;17.852;2023-08-30T06:37:37;14.18;;;12.23;;
21727;SDS011;11026;50.560;17.852;2023-08-30T06:40:05;15.32;;;13.05;;
21727;SDS011;11026;50.560;17.852;2023-08-30T06:42:33;16.60;;;13.23;;
21727;SDS011;11026;50.560;17.852;2023-08-30T06:45:01;15.98;;;13.07;;
21727;SDS011;11026;50.560;17.852;2023-08-30T06:47:29;16.55;;;13.70;;
21727;SDS011;11026;50.560;17.852;2023-08-30T06:49:57;15.75;;;13.70;;
21727;SDS011;11026;50.560;17.852;2023-08-30T06:52:25;16.88;;;13.77;;
21727;SDS011;11026;50.560;17.852;2023-08-30T06:54:53;17.02;;;15.18;;
21727;SDS011;11026;50.560;17.852;2023-08-30T06:57:21;15.80;;;14.20;;
21727;SDS011;11026;50.560;17.852;2023-08-30T06:59:49;16.63;;;14.13;;
21727;SDS011;11026;50.560;17.852;2023-08-30T07:02:16;16.30;;;14.30;;
21727;SDS011;11026;50.560;17.852;2023-08-30T07:04:43;16.63;;;14.48;;
21727;SDS011;11026;50.560;17.852;2023-08-30T07:07:11;18.48;;;14.90;;
21727;SDS011;11026;50.560;17.852;2023-08-30T07:09:40;15.65;;;14.05;;
21727;SDS011;11026;50.560;17.852;2023-08-30T07:12:08;14.75;;;13.25;;
21727;SDS011;11026;50.560;17.852;2023-08-30T07:14:35;14.43;;;12.90;;
21727;SDS011;11026;50.560;17.852;2023-08-30T07:17:03;13.23;;;11.93;;
21727;SDS011;11026;50.560;17.852;2023-08-30T07:19:30;13.80;;;12.50;;
21727;SDS011;11026;50.560;17.852;2023-08-30T07:21:58;12.52;;;11.32;;
21727;SDS011;11026;50.560;17.852;2023-08-30T07:24:25;12.82;;;11.52;;
21727;SDS011;11026;50.560;17.852;2023-08-30T07:26:53;12.23;;;11.13;;
21727;SDS011;11026;50.560;17.852;2023-08-30T07:29:20;11.90;;;10.90;;
21727;SDS011;11026;50.560;17.852;2023-08-30T07:31:48;11.95;;;10.85;;
21727;SDS011;11026;50.560;17.852;2023-08-30T07:34:18;11.90;;;10.15;;
21727;SDS011;11026;50.560;17.852;2023-08-30T07:36:45;11.02;;;10.10;;
21727;SDS011;11026;50.560;17.852;2023-08-30T07:39:16;11.20;;;10.20;;
21727;SDS011;11026;50.560;17.852;2023-08-30T07:41:43;11.98;;;10.88;;
21727;SDS011;11026;50.560;17.852;2023-08-30T07:44:11;11.02;;;10.13;;
21727;SDS011;11026;50.560;17.852;2023-08-30T07:46:38;10.90;;;9.90;;
21727;SDS011;11026;50.560;17.852;2023-08-30T07:49:06;10.02;;;9.05;;
21727;SDS011;11026;50.560;17.852;2023-08-30T07:51:34;9.05;;;8.25;;
21727;SDS011;11026;50.560;17.852;2023-08-30T07:54:02;8.70;;;7.78;;
21727;SDS011;11026;50.560;17.852;2023-08-30T07:56:31;8.80;;;7.97;;
21727;SDS011;11026;50.560;17.852;2023-08-30T07:58:58;8.75;;;7.97;;
21727;SDS011;11026;50.560;17.852;2023-08-30T08:01:26;8.57;;;7.80;;
21727;SDS011;11026;50.560;17.852;2023-08-30T08:03:53;9.00;;;8.20;;
21727;SDS011;11026;50.560;17.852;2023-08-30T08:06:32;8.52;;;7.82;;
21727;SDS011;11026;50.560;17.852;2023-08-30T08:09:00;8.30;;;7.57;;
21727;SDS011;11026;50.560;17.852;2023-08-30T08:11:29;8.23;;;7.43;;
21727;SDS011;11026;50.560;17.852;2023-08-30T08:13:56;8.52;;;7.65;;
21727;SDS011;11026;50.560;17.852;2023-08-30T08:16:25;8.38;;;7.68;;
21727;SDS011;11026;50.560;17.852;2023-08-30T08:18:52;8.68;;;7.88;;
21727;SDS011;11026;50.560;17.852;2023-08-30T08:21:22;8.95;;;8.23;;
21727;SDS011;11026;50.560;17.852;2023-08-30T08:23:49;8.63;;;7.95;;
21727;SDS011;11026;50.560;17.852;2023-08-30T08:26:22;8.45;;;7.75;;
21727;SDS011;11026;50.560;17.852;2023-08-30T08:28:51;8.93;;;8.13;;
21727;SDS011;11026;50.560;17.852;2023-08-30T08:31:18;9.88;;;7.97;;
21727;SDS011;11026;50.560;17.852;2023-08-30T08:33:46;8.02;;;7.32;;
21727;SDS011;11026;50.560;17.852;2023-08-30T08:36:13;8.15;;;7.45;;
21727;SDS011;11026;50.560;17.852;2023-08-30T08:38:41;7.28;;;6.68;;
21727;SDS011;11026;50.560;17.852;2023-08-30T08:41:09;6.80;;;6.20;;
21727;SDS011;11026;50.560;17.852;2023-08-30T08:43:43;6.13;;;5.57;;
21727;SDS011;11026;50.560;17.852;2023-08-30T08:46:11;6.32;;;5.82;;
21727;SDS011;11026;50.560;17.852;2023-08-30T08:48:43;9.25;;;7.07;;
21727;SDS011;11026;50.560;17.852;2023-08-30T08:51:17;5.40;;;4.90;;
21727;SDS011;11026;50.560;17.852;2023-08-30T08:56:13;5.45;;;4.70;;
21727;SDS011;11026;50.560;17.852;2023-08-30T08:58:41;4.28;;;3.90;;
21727;SDS011;11026;50.560;17.852;2023-08-30T09:01:10;4.22;;;3.92;;
21727;SDS011;11026;50.560;17.852;2023-08-30T09:04:09;4.10;;;3.80;;
21727;SDS011;11026;50.560;17.852;2023-08-30T09:06:40;4.05;;;3.75;;
21727;SDS011;11026;50.560;17.852;2023-08-30T09:09:09;4.10;;;3.80;;
21727;SDS011;11026;50.560;17.852;2023-08-30T09:11:37;4.88;;;4.07;;
21727;SDS011;11026;50.560;17.852;2023-08-30T09:14:16;4.70;;;4.30;;
21727;SDS011;11026;50.560;17.852;2023-08-30T09:16:54;4.43;;;4.03;;
21727;SDS011;11026;50.560;17.852;2023-08-30T09:21:57;6.03;;;5.63;;
21727;SDS011;11026;50.560;17.852;2023-08-30T09:24:26;5.03;;;4.63;;
21727;SDS011;11026;50.560;17.852;2023-08-30T09:27:04;5.05;;;4.65;;
21727;SDS011;11026;50.560;17.852;2023-08-30T09:29:31;3.95;;;3.65;;
21727;SDS011;11026;50.560;17.852;2023-08-30T09:32:00;5.03;;;4.63;;
21727;SDS011;11026;50.560;17.852;2023-08-30T09:34:28;7.68;;;6.85;;
21727;SDS011;11026;50.560;17.852;2023-08-30T09:36:56;3.90;;;3.60;;
21727;SDS011;11026;50.560;17.852;2023-08-30T09:39:27;5.00;;;4.60;;
21727;SDS011;11026;50.560;17.852;2023-08-30T09:41:54;5.75;;;4.53;;
21727;SDS011;11026;50.560;17.852;2023-08-30T09:44:22;5.88;;;5.30;;
21727;SDS011;11026;50.560;17.852;2023-08-30T09:46:53;4.68;;;4.30;;
21727;SDS011;11026;50.560;17.852;2023-08-30T09:49:23;4.88;;;4.00;;
21727;SDS011;11026;50.560;17.852;2023-08-30T09:51:52;4.35;;;3.70;;
21727;SDS011;11026;50.560;17.852;2023-08-30T09:54:22;4.43;;;4.07;;
21727;SDS011;11026;50.560;17.852;2023-08-30T09:56:53;7.68;;;6.97;;
21727;SDS011;11026;50.560;17.852;2023-08-30T09:59:24;3.88;;;3.25;;
21727;SDS011;11026;50.560;17.852;2023-08-30T10:01:52;4.75;;;4.35;;
21727;SDS011;11026;50.560;17.852;2023-08-30T10:04:21;4.00;;;3.70;;
21727;SDS011;11026;50.560;17.852;2023-08-30T10:06:56;3.17;;;2.97;;
21727;SDS011;11026;50.560;17.852;2023-08-30T10:09:31;3.25;;;3.05;;
21727;SDS011;11026;50.560;17.852;2023-08-30T10:12:02;3.20;;;3.00;;
21727;SDS011;11026;50.560;17.852;2023-08-30T10:14:31;2.80;;;2.60;;
21727;SDS011;11026;50.560;17.852;2023-08-30T10:17:01;3.50;;;3.30;;
21727;SDS011;11026;50.560;17.852;2023-08-30T10:19:30;2.38;;;2.28;;
21727;SDS011;11026;50.560;17.852;2023-08-30T10:22:02;2.50;;;2.30;;
21727;SDS011;11026;50.560;17.852;2023-08-30T10:24:35;2.47;;;2.28;;
21727;SDS011;11026;50.560;17.852;2023-08-30T10:27:27;2.60;;;2.40;;
21727;SDS011;11026;50.560;17.852;2023-08-30T10:29:59;2.25;;;2.15;;
21727;SDS011;11026;50.560;17.852;2023-08-30T10:32:31;2.70;;;2.38;;
21727;SDS011;11026;50.560;17.852;2023-08-30T10:35:00;2.40;;;2.20;;
21727;SDS011;11026;50.560;17.852;2023-08-30T10:37:29;4.10;;;2.47;;
21727;SDS011;11026;50.560;17.852;2023-08-30T10:40:00;3.28;;;3.08;;
21727;SDS011;11026;50.560;17.852;2023-08-30T10:42:39;4.03;;;3.72;;
21727;SDS011;11026;50.560;17.852;2023-08-30T10:45:22;3.60;;;3.33;;
21727;SDS011;11026;50.560;17.852;2023-08-30T10:47:54;3.75;;;3.45;;
21727;SDS011;11026;50.560;17.852;2023-08-30T10:50:31;3.70;;;3.40;;
21727;SDS011;11026;50.560;17.852;2023-08-30T10:53:00;3.63;;;3.33;;
21727;SDS011;11026;50.560;17.852;2023-08-30T10:55:27;3.38;;;3.17;;
21727;SDS011;11026;50.560;17.852;2023-08-30T10:58:02;3.50;;;3.30;;
21727;SDS011;11026;50.560;17.852;2023-08-30T11:00:31;3.30;;;3.10;;
21727;SDS011;11026;50.560;17.852;2023-08-30T11:02:58;3.00;;;2.80;;
21727;SDS011;11026;50.560;17.852;2023-08-30T11:05:27;3.17;;;2.92;;
21727;SDS011;11026;50.560;17.852;2023-08-30T11:08:02;2.67;;;2.47;;
21727;SDS011;11026;50.560;17.852;2023-08-30T11:10:31;2.70;;;2.50;;
21727;SDS011;11026;50.560;17.852;2023-08-30T11:12:59;2.85;;;2.65;;
21727;SDS011;11026;50.560;17.852;2023-08-30T11:15:28;2.80;;;2.60;;
21727;SDS011;11026;50.560;17.852;2023-08-30T11:18:02;2.78;;;2.58;;
21727;SDS011;11026;50.560;17.852;2023-08-30T11:20:30;3.13;;;2.92;;
21727;SDS011;11026;50.560;17.852;2023-08-30T11:25:29;3.42;;;3.22;;
21727;SDS011;11026;50.560;17.852;2023-08-30T11:28:03;4.30;;;4.00;;
21727;SDS011;11026;50.560;17.852;2023-08-30T11:30:31;2.70;;;2.50;;
21727;SDS011;11026;50.560;17.852;2023-08-30T11:32:58;2.10;;;2.00;;
21727;SDS011;11026;50.560;17.852;2023-08-30T11:35:26;3.28;;;3.05;;
21727;SDS011;11026;50.560;17.852;2023-08-30T11:37:53;2.10;;;1.98;;
21727;SDS011;11026;50.560;17.852;2023-08-30T11:40:21;2.10;;;1.90;;
21727;SDS011;11026;50.560;17.852;2023-08-30T11:42:55;1.80;;;1.70;;
21727;SDS011;11026;50.560;17.852;2023-08-30T11:45:23;1.70;;;1.60;;
21727;SDS011;11026;50.560;17.852;2023-08-30T11:47:51;1.88;;;1.75;;
21727;SDS011;11026;50.560;17.852;2023-08-30T11:50:19;3.38;;;2.22;;
21727;SDS011;11026;50.560;17.852;2023-08-30T11:52:49;2.10;;;2.00;;
21727;SDS011;11026;50.560;17.852;2023-08-30T11:55:17;2.58;;;2.40;;
21727;SDS011;11026;50.560;17.852;2023-08-30T11:57:50;3.25;;;3.00;;
21727;SDS011;11026;50.560;17.852;2023-08-30T12:00:20;3.20;;;3.00;;
21727;SDS011;11026;50.560;17.852;2023-08-30T12:02:48;3.50;;;3.20;;
21727;SDS011;11026;50.560;17.852;2023-08-30T12:05:15;2.90;;;2.70;;
21727;SDS011;11026;50.560;17.852;2023-08-30T12:07:45;3.60;;;3.30;;
21727;SDS011;11026;50.560;17.852;2023-08-30T12:10:17;3.60;;;3.13;;
21727;SDS011;11026;50.560;17.852;2023-08-30T12:12:46;3.35;;;3.13;;
21727;SDS011;11026;50.560;17.852;2023-08-30T12:15:14;4.07;;;3.20;;
21727;SDS011;11026;50.560;17.852;2023-08-30T12:17:43;3.65;;;2.70;;
21727;SDS011;11026;50.560;17.852;2023-08-30T12:20:17;3.92;;;2.80;;
21727;SDS011;11026;50.560;17.852;2023-08-30T12:22:47;2.10;;;2.00;;
21727;SDS011;11026;50.560;17.852;2023-08-30T12:25:21;2.53;;;2.00;;
21727;SDS011;11026;50.560;17.852;2023-08-30T12:27:53;2.40;;;2.10;;
21727;SDS011;11026;50.560;17.852;2023-08-30T12:30:20;2.67;;;2.47;;
21727;SDS011;11026;50.560;17.852;2023-08-30T12:32:48;2.85;;;2.50;;
21727;SDS011;11026;50.560;17.852;2023-08-30T12:35:16;2.70;;;2.50;;
21727;SDS011;11026;50.560;17.852;2023-08-30T12:37:43;2.60;;;2.40;;
21727;SDS011;11026;50.560;17.852;2023-08-30T12:40:16;2.60;;;2.40;;
21727;SDS011;11026;50.560;17.852;2023-08-30T12:42:43;2.88;;;2.50;;
21727;SDS011;11026;50.560;17.852;2023-08-30T12:45:13;2.60;;;2.35;;
21727;SDS011;11026;50.560;17.852;2023-08-30T12:47:40;2.17;;;2.08;;
21727;SDS011;11026;50.560;17.852;2023-08-30T12:50:08;2.45;;;1.90;;
21727;SDS011;11026;50.560;17.852;2023-08-30T12:52:36;2.22;;;2.00;;
21727;SDS011;11026;50.560;17.852;2023-08-30T12:55:05;4.85;;;4.45;;
21727;SDS011;11026;50.560;17.852;2023-08-30T12:57:34;2.30;;;1.90;;
21727;SDS011;11026;50.560;17.852;2023-08-30T13:00:01;3.67;;;2.30;;
21727;SDS011;11026;50.560;17.852;2023-08-30T13:02:29;1.70;;;1.60;;
21727;SDS011;11026;50.560;17.852;2023-08-30T13:04:57;2.58;;;1.98;;
21727;SDS011;11026;50.560;17.852;2023-08-30T13:07:25;2.55;;;1.80;;
21727;SDS011;11026;50.560;17.852;2023-08-30T13:09:52;1.42;;;1.33;;
21727;SDS011;11026;50.560;17.852;2023-08-30T13:12:20;1.95;;;1.85;;
21727;SDS011;11026;50.560;17.852;2023-08-30T13:14:47;1.90;;;1.70;;
21727;SDS011;11026;50.560;17.852;2023-08-30T13:17:16;1.50;;;1.40;;
21727;SDS011;11026;50.560;17.852;2023-08-30T13:19:46;1.80;;;1.50;;
21727;SDS011;11026;50.560;17.852;2023-08-30T13:22:14;1.60;;;1.50;;
21727;SDS011;11026;50.560;17.852;2023-08-30T13:24:47;1.65;;;1.55;;
21727;SDS011;11026;50.560;17.852;2023-08-30T13:29:46;1.70;;;1.50;;
21727;SDS011;11026;50.560;17.852;2023-08-30T13:32:14;2.58;;;1.77;;
21727;SDS011;11026;50.560;17.852;2023-08-30T13:34:42;2.67;;;1.17;;
21727;SDS011;11026;50.560;17.852;2023-08-30T13:37:13;2.00;;;1.35;;
21727;SDS011;11026;50.560;17.852;2023-08-30T13:39:40;2.35;;;1.40;;
21727;SDS011;11026;50.560;17.852;2023-08-30T13:42:08;2.60;;;1.30;;
21727;SDS011;11026;50.560;17.852;2023-08-30T13:44:39;1.50;;;1.38;;
21727;SDS011;11026;50.560;17.852;2023-08-30T13:47:08;9.10;;;8.40;;
21727;SDS011;11026;50.560;17.852;2023-08-30T13:49:36;7.38;;;6.78;;
21727;SDS011;11026;50.560;17.852;2023-08-30T13:52:06;1.30;;;1.20;;
21727;SDS011;11026;50.560;17.852;2023-08-30T13:54:34;1.45;;;1.35;;
21727;SDS011;11026;50.560;17.852;2023-08-30T13:57:02;2.58;;;1.25;;
21727;SDS011;11026;50.560;17.852;2023-08-30T13:59:30;1.30;;;1.20;;
21727;SDS011;11026;50.560;17.852;2023-08-30T14:01:57;1.70;;;1.60;;
21727;SDS011;11026;50.560;17.852;2023-08-30T14:04:26;15.30;;;13.82;;
21727;SDS011;11026;50.560;17.852;2023-08-30T14:06:55;14.27;;;12.98;;
21727;SDS011;11026;50.560;17.852;2023-08-30T14:09:23;3.30;;;2.58;;
21727;SDS011;11026;50.560;17.852;2023-08-30T14:11:50;5.32;;;3.47;;
21727;SDS011;11026;50.560;17.852;2023-08-30T14:14:19;1.85;;;1.63;;
21727;SDS011;11026;50.560;17.852;2023-08-30T14:16:46;1.60;;;1.50;;
21727;SDS011;11026;50.560;17.852;2023-08-30T14:19:14;3.17;;;1.80;;
21727;SDS011;11026;50.560;17.852;2023-08-30T14:21:42;1.92;;;1.80;;
21727;SDS011;11026;50.560;17.852;2023-08-30T14:24:11;1.90;;;1.80;;
21727;SDS011;11026;50.560;17.852;2023-08-30T14:26:38;1.70;;;1.60;;
21727;SDS011;11026;50.560;17.852;2023-08-30T14:29:06;1.73;;;1.63;;
21727;SDS011;11026;50.560;17.852;2023-08-30T14:31:33;2.88;;;2.67;;
21727;SDS011;11026;50.560;17.852;2023-08-30T14:34:02;2.33;;;2.13;;
21727;SDS011;11026;50.560;17.852;2023-08-30T14:36:30;3.63;;;2.65;;
21727;SDS011;11026;50.560;17.852;2023-08-30T14:38:58;9.20;;;5.78;;
21727;SDS011;11026;50.560;17.852;2023-08-30T14:41:26;8.68;;;7.05;;
21727;SDS011;11026;50.560;17.852;2023-08-30T14:43:54;14.95;;;12.38;;
21727;SDS011;11026;50.560;17.852;2023-08-30T14:46:22;5.45;;;4.90;;
21727;SDS011;11026;50.560;17.852;2023-08-30T14:48:50;6.63;;;3.55;;